createdAt,value
2023-05-02T00:02:10.900Z,4.57
2023-05-02T00:04:38.999Z,4.50
2023-05-02T00:07:07.121Z,4.37
2023-05-02T00:09:35.417Z,5.00
2023-05-02T00:12:04.107Z,4.77
2023-05-02T00:14:31.908Z,4.43
2023-05-02T00:16:59.872Z,4.83
2023-05-02T00:19:29.185Z,4.67
2023-05-02T00:21:56.998Z,4.07
2023-05-02T00:24:24.892Z,4.33
2023-05-02T00:26:52.703Z,4.53
2023-05-02T00:29:20.996Z,4.27
2023-05-02T00:31:48.841Z,4.17
2023-05-02T00:34:16.826Z,4.43
2023-05-02T00:36:47.126Z,4.57
2023-05-02T00:39:14.957Z,4.37
2023-05-02T00:41:42.937Z,3.77
2023-05-02T00:44:10.810Z,3.93
2023-05-02T00:46:39.196Z,4.10
2023-05-02T00:49:07.103Z,4.37
2023-05-02T00:51:35.275Z,3.60
2023-05-02T00:54:05.413Z,4.23
2023-05-02T00:56:33.280Z,3.73
2023-05-02T00:59:01.519Z,3.83
2023-05-02T01:01:40.012Z,3.77
2023-05-02T01:04:23.056Z,3.77
2023-05-02T01:10:53.344Z,3.93
2023-05-02T01:13:24.416Z,3.53
2023-05-02T01:15:54.517Z,3.70
2023-05-02T01:18:27.003Z,3.37
2023-05-02T01:21:07.840Z,3.90
2023-05-02T01:23:45.808Z,3.80
2023-05-02T01:26:28.593Z,4.07
2023-05-02T01:29:00.735Z,3.80
2023-05-02T01:31:32.811Z,3.80
2023-05-02T01:34:03.788Z,3.90
2023-05-02T01:36:33.791Z,4.10
2023-05-02T01:39:03.899Z,3.50
2023-05-02T01:41:33.820Z,3.73
2023-05-02T01:44:04.764Z,3.50
2023-05-02T01:46:38.402Z,3.67
2023-05-02T01:49:12.381Z,3.80
2023-05-02T01:51:47.333Z,2.73
2023-05-02T01:54:17.631Z,4.13
2023-05-02T01:56:47.436Z,4.13
2023-05-02T01:59:20.025Z,3.37
2023-05-02T02:01:49.852Z,4.07
2023-05-02T02:04:19.497Z,3.30
2023-05-02T02:06:52.674Z,3.17
2023-05-02T02:09:21.169Z,3.37
2023-05-02T02:11:55.015Z,3.83
2023-05-02T02:14:29.339Z,3.53
2023-05-02T02:17:01.496Z,3.43
2023-05-02T02:19:31.922Z,3.47
2023-05-02T02:22:01.749Z,3.87
2023-05-02T02:24:31.646Z,3.70
2023-05-02T02:26:59.820Z,3.63
2023-05-02T02:29:29.721Z,3.43
2023-05-02T02:32:00.659Z,3.90
2023-05-02T02:34:29.544Z,3.53
2023-05-02T02:37:05.589Z,3.43
2023-05-02T02:39:49.965Z,3.40
2023-05-02T02:42:26.749Z,3.43
2023-05-02T02:45:10.002Z,3.83
2023-05-02T02:47:46.945Z,4.10
2023-05-02T02:50:21.866Z,4.00
2023-05-02T02:52:56.838Z,3.40
2023-05-02T02:55:38.920Z,4.07
2023-05-02T02:58:20.355Z,3.50
2023-05-02T03:00:56.132Z,3.57
2023-05-02T03:03:29.281Z,3.73
2023-05-02T03:05:59.083Z,4.00
2023-05-02T03:08:27.299Z,3.77
2023-05-02T03:10:55.782Z,3.57
2023-05-02T03:13:25.437Z,3.90
2023-05-02T03:16:21.576Z,4.73
2023-05-02T03:18:49.677Z,3.57
2023-05-02T03:21:17.759Z,3.87
2023-05-02T03:23:45.833Z,4.07
2023-05-02T03:26:14.004Z,4.07
2023-05-02T03:28:42.693Z,4.07
2023-05-02T03:31:13.364Z,4.37
2023-05-02T03:33:41.790Z,4.07
2023-05-02T03:36:10.114Z,4.20
2023-05-02T03:38:38.906Z,4.20
2023-05-02T03:41:07.186Z,3.53
2023-05-02T03:43:35.339Z,3.77
2023-05-02T03:46:08.438Z,4.10
2023-05-02T03:48:38.855Z,4.20
2023-05-02T03:51:10.043Z,3.97
2023-05-02T03:53:38.663Z,4.13
2023-05-02T03:56:08.241Z,3.93
2023-05-02T03:58:37.372Z,3.97
2023-05-02T04:01:05.434Z,4.07
2023-05-02T04:03:33.704Z,3.30
2023-05-02T04:06:03.304Z,3.90
2023-05-02T04:08:31.683Z,4.10
2023-05-02T04:10:59.779Z,4.30
2023-05-02T04:13:29.324Z,3.80
2023-05-02T04:15:57.865Z,4.50
2023-05-02T04:18:27.481Z,4.43
2023-05-02T04:20:55.783Z,3.90
2023-05-02T04:23:25.290Z,4.43
2023-05-02T04:25:54.452Z,3.90
2023-05-02T04:28:23.381Z,4.10
2023-05-02T04:30:51.920Z,4.37
2023-05-02T04:33:20.535Z,3.80
2023-05-02T04:35:48.613Z,4.30
2023-05-02T04:38:17.790Z,3.73
2023-05-02T04:40:47.757Z,3.97
2023-05-02T04:43:16.718Z,4.03
2023-05-02T04:45:45.205Z,3.60
2023-05-02T04:48:16.506Z,3.90
2023-05-02T04:50:47.083Z,4.23
2023-05-02T04:53:15.552Z,3.50
2023-05-02T04:55:44.573Z,3.70
2023-05-02T04:58:14.261Z,4.27
2023-05-02T05:00:44.028Z,4.17
2023-05-02T05:03:13.131Z,4.00
2023-05-02T05:05:41.448Z,4.67
2023-05-02T05:08:12.583Z,3.90
2023-05-02T05:10:43.370Z,4.50
2023-05-02T05:13:12.868Z,3.87
2023-05-02T05:15:45.050Z,3.50
2023-05-02T05:18:14.403Z,4.33
2023-05-02T05:20:42.867Z,3.63
2023-05-02T05:23:11.043Z,4.43
2023-05-02T05:25:41.071Z,4.30
2023-05-02T05:28:10.510Z,3.65
2023-05-02T05:30:39.157Z,4.40
2023-05-02T05:33:10.341Z,4.05
2023-05-02T05:35:39.189Z,3.53
2023-05-02T05:38:07.277Z,3.80
2023-05-02T05:40:35.480Z,3.80
2023-05-02T05:43:03.738Z,3.75
2023-05-02T05:45:31.935Z,3.88
2023-05-02T05:48:00.818Z,3.80
2023-05-02T05:50:31.882Z,3.83
2023-05-02T05:53:02.209Z,3.95
2023-05-02T05:55:30.483Z,4.15
2023-05-02T05:57:58.483Z,3.65
2023-05-02T06:00:27.635Z,4.20
2023-05-02T06:02:56.050Z,3.35
2023-05-02T06:05:24.501Z,3.85
2023-05-02T06:07:54.213Z,4.15
2023-05-02T06:10:22.590Z,4.13
2023-05-02T06:12:51.079Z,3.47
2023-05-02T06:15:19.831Z,4.25
2023-05-02T06:17:48.263Z,3.95
2023-05-02T06:20:18.831Z,4.00
2023-05-02T06:22:47.209Z,3.83
2023-05-02T06:25:17.798Z,4.55
2023-05-02T06:27:48.507Z,3.70
2023-05-02T06:30:16.771Z,4.07
2023-05-02T06:32:45.008Z,3.60
2023-05-02T06:35:15.213Z,3.97
2023-05-02T06:37:44.089Z,3.63
2023-05-02T06:40:13.759Z,4.15
2023-05-02T06:42:45.884Z,3.63
2023-05-02T06:45:14.048Z,3.33
2023-05-02T06:47:42.647Z,3.13
2023-05-02T06:50:12.796Z,3.33
2023-05-02T06:52:49.918Z,3.40
2023-05-02T06:55:18.365Z,3.72
2023-05-02T06:57:49.768Z,3.58
2023-05-02T07:00:19.524Z,3.22
2023-05-02T07:02:49.263Z,3.10
2023-05-02T07:05:18.740Z,3.10
2023-05-02T07:07:48.347Z,3.40
2023-05-02T07:10:16.707Z,3.17
2023-05-02T07:12:48.024Z,3.20
2023-05-02T07:15:16.796Z,3.20
2023-05-02T07:17:49.688Z,2.80
2023-05-02T07:20:17.916Z,3.20
2023-05-02T07:22:48.685Z,2.78
2023-05-02T07:25:17.396Z,2.40
2023-05-02T07:27:45.671Z,2.63
2023-05-02T07:30:15.481Z,2.58
2023-05-02T07:32:44.211Z,2.22
2023-05-02T07:35:12.958Z,2.55
2023-05-02T07:37:42.540Z,2.00
2023-05-02T07:40:12.640Z,2.20
2023-05-02T07:42:42.032Z,1.77
2023-05-02T07:45:14.624Z,2.22
2023-05-02T07:47:46.067Z,2.05
2023-05-02T07:50:14.599Z,2.05
2023-05-02T07:52:42.869Z,2.38
2023-05-02T07:55:13.402Z,1.92
2023-05-02T07:57:42.183Z,2.00
2023-05-02T08:00:11.856Z,2.08
2023-05-02T08:02:40.262Z,2.17
2023-05-02T08:05:11.325Z,2.15
2023-05-02T08:07:40.165Z,2.15
2023-05-02T08:10:11.542Z,2.28
2023-05-02T08:12:41.274Z,2.30
2023-05-02T08:15:13.752Z,2.20
2023-05-02T08:17:42.089Z,2.30
2023-05-02T08:20:12.732Z,2.33
2023-05-02T08:22:41.110Z,2.38
2023-05-02T08:25:11.334Z,2.60
2023-05-02T08:27:51.284Z,2.75
2023-05-02T08:30:22.327Z,2.63
2023-05-02T08:32:59.472Z,2.80
2023-05-02T08:35:30.480Z,3.17
2023-05-02T08:38:00.265Z,2.78
2023-05-02T08:40:40.811Z,2.58
2023-05-02T08:43:13.147Z,2.97
2023-05-02T08:45:43.976Z,3.10
2023-05-02T08:48:17.193Z,2.75
2023-05-02T08:50:48.660Z,2.90
2023-05-02T08:53:22.407Z,2.55
2023-05-02T08:55:51.329Z,3.03
2023-05-02T08:58:20.079Z,3.55
2023-05-02T09:00:55.026Z,3.15
2023-05-02T09:03:31.969Z,2.90
2023-05-02T09:06:13.028Z,3.08
2023-05-02T09:08:49.404Z,3.50
2023-05-02T09:11:18.925Z,2.90
2023-05-02T09:13:52.041Z,3.15
2023-05-02T09:16:23.594Z,3.60
2023-05-02T09:18:55.249Z,3.35
2023-05-02T09:21:26.904Z,3.05
2023-05-02T09:23:57.456Z,3.30
2023-05-02T09:26:33.937Z,3.38
2023-05-02T09:29:11.931Z,3.40
2023-05-02T09:34:14.473Z,3.63
2023-05-02T09:36:47.019Z,3.60
2023-05-02T09:39:19.158Z,3.95
2023-05-02T09:41:51.518Z,3.88
2023-05-02T09:44:21.285Z,2.80
2023-05-02T09:46:51.127Z,3.95
2023-05-02T09:49:22.045Z,3.97
2023-05-02T09:52:16.816Z,3.67
2023-05-02T09:54:48.669Z,3.72
2023-05-02T09:57:17.381Z,4.35
2023-05-02T10:00:00.913Z,4.30
2023-05-02T10:02:34.314Z,3.85
2023-05-02T10:05:05.476Z,4.80
2023-05-02T10:07:37.659Z,4.20
2023-05-02T10:10:10.250Z,4.97
2023-05-02T10:12:43.332Z,4.45
2023-05-02T10:15:18.150Z,4.75
2023-05-02T10:17:50.910Z,4.55
2023-05-02T10:20:25.152Z,4.40
2023-05-02T10:23:02.626Z,4.50
2023-05-02T10:25:33.180Z,4.20
2023-05-02T10:28:11.261Z,4.97
2023-05-02T10:30:41.788Z,4.32
2023-05-02T10:33:10.092Z,5.30
2023-05-02T10:35:49.916Z,5.57
2023-05-02T10:38:24.958Z,8.70
2023-05-02T10:41:00.374Z,10.13
2023-05-02T10:43:33.842Z,17.55
2023-05-02T10:46:05.113Z,17.13
2023-05-02T10:48:34.640Z,14.93
2023-05-02T10:51:04.302Z,15.75
2023-05-02T10:53:37.722Z,8.73
2023-05-02T10:56:23.125Z,6.68
2023-05-02T10:58:56.047Z,5.90
2023-05-02T11:01:40.294Z,5.05
2023-05-02T11:04:11.340Z,6.07
2023-05-02T11:07:18.082Z,5.05
2023-05-02T11:09:51.358Z,5.43
2023-05-02T11:12:45.400Z,5.22
2023-05-02T11:15:14.052Z,5.75
2023-05-02T11:18:02.086Z,5.82
2023-05-02T11:20:33.099Z,6.63
2023-05-02T11:23:27.961Z,6.60
2023-05-02T11:26:01.597Z,7.72
2023-05-02T11:28:48.126Z,6.85
2023-05-02T11:31:57.068Z,7.75
2023-05-02T11:34:27.003Z,7.40
2023-05-02T11:36:56.508Z,7.88
2023-05-02T11:39:24.926Z,7.93
2023-05-02T11:41:55.730Z,8.82
2023-05-02T11:44:24.815Z,9.35
2023-05-02T11:46:55.544Z,9.10
2023-05-02T11:49:24.817Z,9.00
2023-05-02T11:51:55.384Z,7.85
2023-05-02T11:54:24.789Z,7.50
2023-05-02T11:56:55.861Z,6.95
2023-05-02T11:59:26.869Z,7.20
2023-05-02T12:01:56.436Z,9.32
2023-05-02T12:04:26.836Z,10.32
2023-05-02T12:07:02.026Z,10.32
2023-05-02T12:09:31.593Z,10.15
2023-05-02T12:12:03.060Z,10.25
2023-05-02T12:14:35.734Z,10.88
2023-05-02T12:17:08.288Z,10.75
2023-05-02T12:19:40.358Z,10.18
2023-05-02T12:22:10.915Z,9.07
2023-05-02T12:24:39.746Z,8.93
2023-05-02T12:27:17.315Z,8.70
2023-05-02T12:29:47.702Z,8.95
2023-05-02T12:32:17.027Z,8.13
2023-05-02T12:34:45.449Z,8.20
2023-05-02T12:37:14.480Z,7.47
2023-05-02T12:39:47.620Z,6.60
2023-05-02T12:42:21.406Z,7.22
2023-05-02T12:44:52.824Z,8.75
2023-05-02T12:47:25.317Z,7.15
2023-05-02T12:49:55.080Z,6.65
2023-05-02T12:52:45.815Z,5.90
2023-05-02T12:55:18.086Z,5.82
2023-05-02T12:57:51.070Z,5.03
2023-05-02T13:00:22.581Z,4.20
2023-05-02T13:02:51.005Z,4.13
2023-05-02T13:05:23.173Z,3.53
2023-05-02T13:07:51.680Z,3.78
2023-05-02T13:10:24.900Z,4.05
2023-05-02T13:12:58.557Z,3.55
2023-05-02T13:15:27.864Z,4.20
2023-05-02T13:17:57.072Z,4.07
2023-05-02T13:20:28.668Z,3.95
2023-05-02T13:22:56.911Z,4.40
2023-05-02T13:25:29.590Z,4.97
2023-05-02T13:28:03.053Z,4.43
2023-05-02T13:30:47.248Z,4.13
2023-05-02T13:33:18.199Z,4.35
2023-05-02T13:35:46.788Z,4.15
2023-05-02T13:38:23.067Z,4.32
2023-05-02T13:40:54.242Z,4.30
2023-05-02T13:43:27.312Z,4.32
2023-05-02T13:45:58.035Z,3.45
2023-05-02T13:48:26.630Z,3.17
2023-05-02T13:51:02.646Z,3.08
2023-05-02T13:53:33.866Z,3.38
2023-05-02T13:56:08.635Z,3.40
2023-05-02T13:58:47.496Z,3.20
2023-05-02T14:01:18.855Z,3.60
2023-05-02T14:03:48.158Z,3.38
2023-05-02T14:06:22.719Z,3.45
2023-05-02T14:08:56.936Z,3.38
2023-05-02T14:11:26.147Z,4.18
2023-05-02T14:13:58.485Z,3.67
2023-05-02T14:16:27.365Z,4.13
2023-05-02T14:18:58.068Z,3.78
2023-05-02T14:21:27.587Z,3.95
2023-05-02T14:23:58.329Z,4.57
2023-05-02T14:26:26.597Z,3.38
2023-05-02T14:28:57.203Z,3.50
2023-05-02T14:31:28.914Z,3.28
2023-05-02T14:33:59.915Z,3.33
2023-05-02T14:36:32.041Z,3.55
2023-05-02T14:39:00.193Z,3.53
2023-05-02T14:41:32.439Z,3.50
2023-05-02T14:44:07.138Z,3.53
2023-05-02T14:46:38.536Z,4.00
2023-05-02T14:49:07.052Z,3.72
2023-05-02T14:51:35.326Z,3.70
2023-05-02T14:54:04.757Z,4.00
2023-05-02T14:56:33.938Z,3.70
2023-05-02T14:59:03.681Z,3.70
2023-05-02T15:01:34.387Z,3.65
2023-05-02T15:04:06.875Z,3.13
2023-05-02T15:06:36.741Z,3.78
2023-05-02T15:09:06.034Z,3.58
2023-05-02T15:11:34.950Z,4.10
2023-05-02T15:14:07.395Z,3.60
2023-05-02T15:16:37.345Z,3.40
2023-05-02T15:19:07.998Z,3.50
2023-05-02T15:21:39.986Z,3.80
2023-05-02T15:24:16.187Z,3.60
2023-05-02T15:26:49.998Z,3.63
2023-05-02T15:29:20.563Z,3.80
2023-05-02T15:31:50.373Z,3.85
2023-05-02T15:34:19.278Z,3.90
2023-05-02T15:36:49.500Z,4.32
2023-05-02T15:39:20.715Z,3.67
2023-05-02T15:41:48.794Z,4.53
2023-05-02T15:44:19.695Z,4.25
2023-05-02T15:46:48.239Z,3.72
2023-05-02T15:49:18.768Z,3.90
2023-05-02T15:51:47.194Z,3.88
2023-05-02T15:54:15.422Z,3.90
2023-05-02T15:56:48.733Z,4.20
2023-05-02T15:59:18.988Z,4.63
2023-05-02T16:01:52.961Z,3.92
2023-05-02T16:04:25.307Z,4.05
2023-05-02T16:06:59.982Z,4.35
2023-05-02T16:09:28.473Z,3.70
2023-05-02T16:11:56.947Z,4.15
2023-05-02T16:14:26.816Z,3.83
2023-05-02T16:17:00.520Z,4.18
2023-05-02T16:19:30.998Z,3.83
2023-05-02T16:22:02.496Z,4.68
2023-05-02T16:24:34.185Z,3.97
2023-05-02T16:27:03.753Z,4.47
2023-05-02T16:29:32.245Z,4.30
2023-05-02T16:32:02.206Z,3.65
2023-05-02T16:34:32.943Z,4.35
2023-05-02T16:37:06.831Z,4.50
2023-05-02T16:39:38.046Z,4.38
2023-05-02T16:42:08.359Z,3.90
2023-05-02T16:44:40.101Z,4.63
2023-05-02T16:47:11.217Z,4.35
2023-05-02T16:50:03.506Z,4.30
2023-05-02T16:52:32.435Z,4.40
2023-05-02T16:55:04.538Z,4.38
2023-05-02T16:57:33.108Z,4.00
2023-05-02T17:00:04.833Z,4.28
2023-05-02T17:02:36.910Z,4.60
2023-05-02T17:05:06.784Z,3.88
2023-05-02T17:07:34.837Z,4.10
2023-05-02T17:10:06.820Z,4.05
2023-05-02T17:12:39.207Z,4.28
2023-05-02T17:15:09.502Z,4.32
2023-05-02T17:17:38.986Z,4.43
2023-05-02T17:20:11.428Z,4.15
2023-05-02T17:22:41.732Z,4.28
2023-05-02T17:25:12.850Z,4.38
2023-05-02T17:27:42.136Z,4.43
2023-05-02T17:30:13.676Z,4.53
2023-05-02T17:32:45.457Z,4.43
2023-05-02T17:35:18.851Z,4.07
2023-05-02T17:38:02.094Z,4.28
2023-05-02T17:40:31.076Z,4.32
2023-05-02T17:42:59.737Z,3.85
2023-05-02T17:45:32.266Z,4.05
2023-05-02T17:48:13.737Z,4.90
2023-05-02T17:50:43.460Z,3.75
2023-05-02T17:53:11.814Z,3.90
2023-05-02T17:55:46.373Z,4.35
2023-05-02T17:58:14.864Z,4.03
2023-05-02T18:00:44.165Z,4.18
2023-05-02T18:03:14.054Z,4.80
2023-05-02T18:05:46.044Z,4.32
2023-05-02T18:08:17.524Z,4.18
2023-05-02T18:10:58.254Z,4.10
2023-05-02T18:13:39.905Z,4.50
2023-05-02T18:16:08.147Z,5.18
2023-05-02T18:18:39.068Z,5.13
2023-05-02T18:21:10.607Z,4.50
2023-05-02T18:23:40.435Z,4.60
2023-05-02T18:26:15.289Z,4.57
2023-05-02T18:28:48.681Z,4.85
2023-05-02T18:31:18.950Z,5.60
2023-05-02T18:33:49.765Z,4.95
2023-05-02T18:36:27.677Z,4.60
2023-05-02T18:39:00.102Z,4.78
2023-05-02T18:41:31.095Z,5.07
2023-05-02T18:44:01.010Z,4.05
2023-05-02T18:46:29.696Z,4.75
2023-05-02T18:49:00.919Z,4.25
2023-05-02T18:51:30.209Z,4.28
2023-05-02T18:53:59.131Z,4.30
2023-05-02T18:56:28.524Z,4.15
2023-05-02T18:58:56.970Z,4.72
2023-05-02T19:01:28.488Z,4.13
2023-05-02T19:03:57.284Z,4.28
2023-05-02T19:06:28.821Z,4.05
2023-05-02T19:08:56.870Z,4.28
2023-05-02T19:11:25.688Z,3.83
2023-05-02T19:13:59.933Z,4.20
2023-05-02T19:16:30.422Z,4.22
2023-05-02T19:18:59.341Z,4.32
2023-05-02T19:21:31.190Z,4.80
2023-05-02T19:24:03.122Z,4.35
2023-05-02T19:26:32.349Z,4.80
2023-05-02T19:29:00.893Z,4.75
2023-05-02T19:31:29.091Z,4.70
2023-05-02T19:33:57.296Z,6.18
2023-05-02T19:36:27.708Z,5.05
2023-05-02T19:38:58.419Z,5.10
2023-05-02T19:41:27.507Z,5.20
2023-05-02T19:43:59.002Z,5.53
2023-05-02T19:46:27.220Z,5.40
2023-05-02T19:48:55.808Z,5.22
2023-05-02T19:51:28.202Z,5.13
2023-05-02T19:54:00.305Z,5.07
2023-05-02T19:56:30.455Z,4.78
2023-05-02T19:59:01.415Z,4.90
2023-05-02T20:01:31.887Z,5.13
2023-05-02T20:04:00.577Z,5.15
2023-05-02T20:06:29.461Z,5.30
2023-05-02T20:09:03.952Z,4.95
2023-05-02T20:11:34.750Z,5.80
2023-05-02T20:14:03.256Z,5.20
2023-05-02T20:16:33.659Z,5.28
2023-05-02T20:19:02.586Z,5.15
2023-05-02T20:21:34.900Z,5.57
2023-05-02T20:24:05.697Z,4.87
2023-05-02T20:26:35.121Z,5.00
2023-05-02T20:29:06.200Z,4.60
2023-05-02T20:31:48.998Z,4.53
2023-05-02T20:34:18.006Z,4.15
2023-05-02T20:36:46.558Z,4.77
2023-05-02T20:39:21.118Z,5.17
2023-05-02T20:41:49.805Z,4.78
2023-05-02T20:44:22.588Z,4.70
2023-05-02T20:46:52.813Z,5.40
2023-05-02T20:49:24.185Z,5.03
2023-05-02T20:51:52.721Z,5.47
2023-05-02T20:54:22.254Z,5.07
2023-05-02T20:56:51.015Z,5.20
2023-05-02T20:59:19.769Z,5.20
2023-05-02T21:02:00.173Z,4.67
2023-05-02T21:04:29.721Z,4.93
2023-05-02T21:06:58.754Z,5.17
2023-05-02T21:09:31.442Z,4.57
2023-05-02T21:12:05.735Z,4.53
2023-05-02T21:14:37.236Z,4.77
2023-05-02T21:17:06.896Z,5.00
2023-05-02T21:19:34.962Z,5.43
2023-05-02T21:22:04.255Z,5.33
2023-05-02T21:24:34.303Z,4.33
2023-05-02T21:27:03.883Z,4.73
2023-05-02T21:29:32.981Z,3.77
2023-05-02T21:32:01.315Z,3.50
2023-05-02T21:34:31.938Z,4.00
2023-05-02T21:37:02.846Z,4.77
2023-05-02T21:39:33.478Z,4.13
2023-05-02T21:42:03.264Z,3.77
2023-05-02T21:44:32.994Z,3.90
2023-05-02T21:47:04.048Z,3.87
2023-05-02T21:49:32.505Z,4.07
2023-05-02T21:52:01.216Z,9.30
2023-05-02T21:54:32.206Z,4.07
2023-05-02T21:57:00.782Z,3.60
2023-05-02T21:59:31.605Z,3.60
2023-05-02T22:01:59.803Z,3.50
2023-05-02T22:04:38.154Z,3.43
2023-05-02T22:07:09.440Z,3.47
2023-05-02T22:09:40.377Z,3.43
2023-05-02T22:12:09.304Z,3.20
2023-05-02T22:14:45.359Z,3.30
2023-05-02T22:17:14.358Z,3.47
2023-05-02T22:19:42.709Z,3.50
2023-05-02T22:22:11.326Z,3.80
2023-05-02T22:24:41.948Z,3.70
2023-05-02T22:27:10.552Z,3.20
2023-05-02T22:29:40.524Z,3.60
2023-05-02T22:32:11.384Z,3.73
2023-05-02T22:34:39.624Z,3.40
2023-05-02T22:37:07.920Z,3.50
2023-05-02T22:39:36.594Z,3.30
2023-05-02T22:42:05.043Z,3.50
2023-05-02T22:44:37.906Z,3.40
2023-05-02T22:47:15.605Z,2.90
2023-05-02T22:49:44.990Z,3.20
2023-05-02T22:52:15.728Z,3.20
2023-05-02T22:54:46.466Z,3.07
2023-05-02T22:57:15.974Z,2.60
2023-05-02T22:59:43.961Z,2.60
2023-05-02T23:02:16.307Z,2.17
2023-05-02T23:04:44.476Z,2.40
2023-05-02T23:07:14.932Z,2.47
2023-05-02T23:09:44.438Z,1.93
2023-05-02T23:12:12.846Z,2.00
2023-05-02T23:14:43.390Z,1.93
2023-05-02T23:17:11.565Z,2.43
2023-05-02T23:19:44.784Z,2.23
2023-05-02T23:22:16.023Z,2.17
2023-05-02T23:24:46.457Z,2.37
2023-05-02T23:27:14.813Z,2.17
2023-05-02T23:29:42.902Z,1.63
2023-05-02T23:32:12.055Z,2.00
2023-05-02T23:34:41.838Z,2.20
2023-05-02T23:37:10.193Z,1.50
2023-05-02T23:39:38.488Z,1.80
2023-05-02T23:42:08.850Z,1.87
2023-05-02T23:44:37.497Z,1.97
2023-05-02T23:47:06.910Z,1.97
2023-05-02T23:49:37.812Z,2.03
2023-05-02T23:52:09.066Z,1.70
2023-05-02T23:54:37.536Z,1.97
2023-05-02T23:57:09.404Z,2.40
2023-05-02T23:59:37.654Z,2.33
